Manakin Sabot, Virginia
Current Conditions -  °F | °C
As of 7:54 PM on Saturday 25 Oct 2014 (Local Time) from KOFP Reporting Station
Clear Clear  
Wind Chill: 62°   Ceiling: Unl
Heat Index: 62°   Visibility: 10mi
Dew Point: 43°   Wind: 8mph
Humidity: 50%   Direction: 200°SSW
Pressure: 29.82"   Gusts: NA
Location:  37.65°N, 77.72°W
Report Text: KOFP 252354Z AUTO 20007KT 10SM CLR 17/06 A2982 RMK AO2 SLP097 T01670061 10217 20161 56012
Loading
Personal Weather Stations






























Interactive Weather Map New forecast layout! Learn more

10-Day Weather Forecast

Advertisements
Track Severe Weather on mobile